Riverton, Mississippi
Current Conditions -  °F | °C
As of 12:55 AM on Sunday 26 Oct 2014 (Local Time) from KCKM Reporting Station
Clear Clear  
Wind Chill: 63°   Ceiling: Unl
Heat Index: 63°   Visibility: 5mi
Dew Point: 63°   Wind: 3mph
Humidity: 100%   Direction: 150°SSE
Pressure: 30.04"   Gusts: NA
Location:  34.1809°N, 90.6118°W
Report Text: KCKM 260555Z AUTO 15003KT 5SM CLR 17/17 A3004 RMK AO1
Loading
Personal Weather Stations






























Interactive Weather Map
Tropical Storm Tracking
New forecast layout! Learn more

10-Day Weather Forecast

Advertisements
Track Severe Weather on mobile